Time;durP1;ratioP1;P1;durP2;ratioP2;P2;SDS_P1;SDS_P2;PMS_P1;PMS_P2;Temp;Humidity;BMP_temperature;BMP_pressure;BME280_temperature;BME280_humidity;BME280_pressure;Samples;Min_cycle;Max_cycle;Signal;HPM_P1;HPM_P2
2021/12/17 00:01:00;;;;;;;54.00;20.38;;;8.50;99.90;;;;;;5009480;28;20049;-81
2021/12/17 00:03:36;;;;;;;52.97;19.85;;;8.50;99.90;;;;;;5024895;28;20061;-81
2021/12/17 00:06:41;;;;;;;55.40;21.85;;;8.50;99.90;;;;;;5009597;28;20048;-81
2021/12/17 00:08:54;;;;;;;65.25;23.60;;;8.50;99.90;;;;;;5006097;28;20120;-81
2021/12/17 00:11:22;;;;;;;52.03;22.13;;;8.50;99.90;;;;;;5004537;28;20045;-81
2021/12/17 00:13:48;;;;;;;75.13;26.80;;;8.50;99.90;;;;;;5007908;28;20728;-81
2021/12/17 00:16:20;;;;;;;53.88;21.58;;;8.50;99.90;;;;;;5008651;28;20164;-81
2021/12/17 00:19:08;;;;;;;63.33;23.08;;;8.50;99.90;;;;;;5009445;28;20120;-81
2021/12/17 00:48:42;;;;;;;64.22;24.85;;;8.40;99.90;;;;;;5007831;28;20058;-81
2021/12/17 00:53:58;;;;;;;112.93;34.13;;;8.40;99.90;;;;;;5022748;28;20064;-81
2021/12/17 00:56:25;;;;;;;104.28;31.42;;;8.40;99.90;;;;;;5007226;28;20050;-81
2021/12/17 00:58:50;;;;;;;69.70;24.23;;;8.40;99.90;;;;;;5008564;28;20054;-81
2021/12/17 01:01:17;;;;;;;94.90;28.67;;;8.40;99.90;;;;;;5009006;28;20042;-81
2021/12/17 01:03:43;;;;;;;103.55;31.38;;;8.40;99.90;;;;;;5008832;28;20049;-81
2021/12/17 01:06:09;;;;;;;126.65;33.10;;;8.40;99.90;;;;;;5006956;28;20046;-81
2021/12/17 01:08:36;;;;;;;124.18;33.22;;;8.40;99.90;;;;;;5008374;28;20038;-81
2021/12/17 01:11:02;;;;;;;89.47;27.80;;;8.40;99.90;;;;;;5008909;28;20137;-81
2021/12/17 01:13:28;;;;;;;53.15;20.75;;;8.40;99.90;;;;;;5023567;28;20092;-81
2021/12/17 01:15:54;;;;;;;34.92;15.25;;;8.40;99.90;;;;;;5006169;28;20057;-81
2021/12/17 01:18:23;;;;;;;56.30;22.23;;;8.40;99.90;;;;;;5008399;28;20034;-81
2021/12/17 01:36:38;;;;;;;40.70;15.75;;;8.40;99.90;;;;;;5008493;28;20061;-81
2021/12/17 01:42:01;;;;;;;41.67;16.05;;;8.40;99.90;;;;;;5008378;28;20413;-81
2021/12/17 01:44:27;;;;;;;49.10;17.48;;;8.40;99.90;;;;;;5006476;28;20050;-81
2021/12/17 01:46:54;;;;;;;42.45;18.17;;;8.40;99.90;;;;;;5008961;28;20034;-81
2021/12/17 02:00:32;;;;;;;39.00;16.05;;;8.40;99.90;;;;;;5026571;28;20057;-81
2021/12/17 02:03:01;;;;;;;37.38;14.82;;;8.40;99.90;;;;;;5009119;28;20405;-81
2021/12/17 02:05:26;;;;;;;38.88;15.60;;;8.40;99.90;;;;;;5011644;28;20057;-81
2021/12/17 02:07:55;;;;;;;38.58;13.95;;;8.40;99.90;;;;;;5010477;28;20042;-81
2021/12/17 02:32:00;;;;;;;26.67;12.45;;;8.40;99.90;;;;;;5011352;28;20000;-81
2021/12/17 02:37:00;;;;;;;30.02;13.05;;;8.40;99.90;;;;;;5025333;28;20428;-81
2021/12/17 02:47:40;;;;;;;33.00;12.93;;;8.30;99.90;;;;;;5009558;28;20046;-81
2021/12/17 02:50:08;;;;;;;27.75;12.85;;;8.30;99.90;;;;;;5010628;28;20603;-81
2021/12/17 02:52:37;;;;;;;29.20;12.52;;;8.30;99.90;;;;;;5009336;28;20121;-81
2021/12/17 02:55:05;;;;;;;26.30;13.00;;;8.30;99.90;;;;;;5009872;28;20509;-81
2021/12/17 02:57:32;;;;;;;23.92;11.88;;;8.30;99.90;;;;;;5009648;28;20054;-81
2021/12/17 02:59:59;;;;;;;29.45;12.02;;;8.30;99.90;;;;;;5011341;28;20046;-81
2021/12/17 03:02:29;;;;;;;31.40;13.25;;;8.30;99.90;;;;;;5008649;28;20065;-81
2021/12/17 03:04:55;;;;;;;29.30;11.85;;;8.30;99.90;;;;;;5009976;28;20038;-81
2021/12/17 03:07:21;;;;;;;26.80;10.40;;;8.30;99.90;;;;;;5009359;28;20482;-81
2021/12/17 03:12:18;;;;;;;23.08;9.52;;;8.30;99.90;;;;;;5010313;28;20575;-81
2021/12/17 03:14:52;;;;;;;24.00;9.95;;;8.30;99.90;;;;;;5007418;28;20417;-81
2021/12/17 03:17:33;;;;;;;20.10;9.25;;;8.30;99.90;;;;;;5010391;28;20374;-81
2021/12/17 03:25:29;;;;;;;24.15;9.27;;;8.30;99.90;;;;;;5008943;28;20100;-81
2021/12/17 03:27:54;;;;;;;26.17;9.88;;;8.30;99.90;;;;;;5009194;28;20711;-81
2021/12/17 03:30:20;;;;;;;24.02;9.98;;;8.30;99.90;;;;;;5009641;28;20049;-81
2021/12/17 03:32:45;;;;;;;19.77;9.88;;;8.30;99.90;;;;;;5010469;28;20037;-81
2021/12/17 03:35:11;;;;;;;23.42;9.65;;;8.30;99.90;;;;;;5010321;28;20042;-81
2021/12/17 03:37:37;;;;;;;27.45;10.27;;;8.30;99.90;;;;;;5008190;28;20117;-81
2021/12/17 03:40:03;;;;;;;29.88;11.30;;;8.30;99.90;;;;;;5010013;28;20421;-81
2021/12/17 03:42:28;;;;;;;28.90;11.10;;;8.30;99.90;;;;;;5009933;28;20030;-81
2021/12/17 03:44:54;;;;;;;26.10;10.52;;;8.30;99.90;;;;;;5009112;28;20132;-81
2021/12/17 03:47:19;;;;;;;24.85;10.32;;;8.30;99.90;;;;;;5009620;28;20038;-81
2021/12/17 03:49:46;;;;;;;23.98;10.55;;;8.30;99.90;;;;;;5009283;28;20046;-81
2021/12/17 03:52:13;;;;;;;31.67;12.25;;;8.30;99.90;;;;;;5025806;28;20493;-81
2021/12/17 03:54:39;;;;;;;22.65;11.02;;;8.30;99.90;;;;;;5008397;28;20045;-81
2021/12/17 03:57:07;;;;;;;28.55;11.25;;;8.30;99.90;;;;;;5009291;28;20430;-81
2021/12/17 03:59:34;;;;;;;26.77;10.85;;;8.30;99.90;;;;;;5009451;28;20504;-81
2021/12/17 04:01:59;;;;;;;24.30;10.60;;;8.20;99.90;;;;;;5009937;28;20407;-81
2021/12/17 04:04:25;;;;;;;28.58;11.48;;;8.30;99.90;;;;;;5024529;28;20038;-81
2021/12/17 04:06:50;;;;;;;28.38;11.98;;;8.20;99.90;;;;;;5009298;28;20038;-81
2021/12/17 04:09:19;;;;;;;28.25;10.15;;;8.20;99.90;;;;;;5009789;28;20096;-81
2021/12/17 04:11:46;;;;;;;22.00;9.63;;;8.20;99.90;;;;;;5009247;28;20196;-81
2021/12/17 04:14:12;;;;;;;23.67;10.57;;;8.20;99.90;;;;;;5008720;28;20572;-81
2021/12/17 04:16:38;;;;;;;31.17;11.95;;;8.20;99.90;;;;;;5007533;28;20168;-81
2021/12/17 04:19:03;;;;;;;28.17;12.52;;;8.20;99.90;;;;;;5023774;28;20092;-81
2021/12/17 04:21:29;;;;;;;26.90;9.85;;;8.10;99.90;;;;;;5005155;28;20129;-81
2021/12/17 04:23:55;;;;;;;27.33;10.65;;;8.10;99.90;;;;;;5007799;28;20115;-81
2021/12/17 04:26:23;;;;;;;24.98;10.27;;;8.10;99.90;;;;;;5008811;28;20042;-81
2021/12/17 04:28:51;;;;;;;23.40;9.80;;;8.10;99.90;;;;;;5006109;28;20065;-81
2021/12/17 04:31:24;;;;;;;21.90;9.68;;;8.10;99.90;;;;;;5008713;28;20131;-81
2021/12/17 04:33:50;;;;;;;19.95;8.82;;;8.10;99.90;;;;;;5008201;28;20524;-81
2021/12/17 04:36:22;;;;;;;20.08;8.77;;;8.10;99.90;;;;;;5008864;28;20072;-81
2021/12/17 04:38:48;;;;;;;22.25;9.77;;;8.10;99.90;;;;;;5006534;28;20049;-81
2021/12/17 04:46:46;;;;;;;;;;;8.10;99.90;;;;;;5006838;28;20050;-81
2021/12/17 04:57:33;;;;;;;20.65;9.15;;;8.10;99.90;;;;;;5009157;28;20046;-81
2021/12/17 05:00:06;;;;;;;23.33;10.05;;;8.10;99.90;;;;;;5009199;28;20049;-81
2021/12/17 05:02:36;;;;;;;19.92;9.25;;;8.10;99.90;;;;;;5006522;28;20050;-81
2021/12/17 05:05:06;;;;;;;22.55;8.65;;;8.10;99.90;;;;;;5007151;28;20401;-81
2021/12/17 05:07:33;;;;;;;20.92;9.13;;;8.10;99.90;;;;;;5006996;28;20409;-81
2021/12/17 05:10:11;;;;;;;18.15;7.95;;;8.10;99.90;;;;;;5009290;28;20057;-81
2021/12/17 05:18:21;;;;;;;20.67;8.65;;;8.10;99.90;;;;;;5008178;28;20042;-81
2021/12/17 05:20:50;;;;;;;19.48;8.00;;;8.10;99.90;;;;;;5000366;28;20042;-81
2021/12/17 05:23:25;;;;;;;15.95;7.25;;;8.10;99.90;;;;;;5004650;28;20104;-82
2021/12/17 05:25:51;;;;;;;23.38;8.65;;;8.10;99.90;;;;;;5009733;28;20073;-81
2021/12/17 05:28:17;;;;;;;23.77;9.18;;;8.10;99.90;;;;;;5005399;28;20073;-81
2021/12/17 05:30:46;;;;;;;22.95;9.55;;;8.10;99.90;;;;;;5009216;28;20088;-81
2021/12/17 05:33:17;;;;;;;20.63;8.55;;;8.10;99.90;;;;;;5011780;28;20081;-82
2021/12/17 05:35:43;;;;;;;17.23;8.00;;;8.10;99.90;;;;;;5010020;28;20094;-81
2021/12/17 05:38:10;;;;;;;17.00;8.85;;;8.10;99.90;;;;;;5011473;28;20049;-81
2021/12/17 05:40:37;;;;;;;19.13;7.90;;;8.10;99.90;;;;;;5010601;28;20050;-81
2021/12/17 05:43:05;;;;;;;22.77;9.00;;;8.10;99.90;;;;;;5011607;28;20129;-81
2021/12/17 05:45:34;;;;;;;18.10;9.00;;;8.10;99.90;;;;;;5011810;28;20485;-81
2021/12/17 05:48:02;;;;;;;23.67;10.30;;;8.10;99.90;;;;;;5011307;28;20105;-82
2021/12/17 05:50:28;;;;;;;16.73;7.55;;;8.10;99.90;;;;;;5011441;28;20042;-81
2021/12/17 05:52:54;;;;;;;19.05;8.80;;;8.10;99.90;;;;;;5011474;28;20112;-81
2021/12/17 05:55:19;;;;;;;22.80;9.85;;;8.10;99.90;;;;;;5011940;28;20732;-81
2021/12/17 05:57:45;;;;;;;17.35;9.27;;;8.10;99.90;;;;;;5011326;28;20042;-82
2021/12/17 06:00:11;;;;;;;23.85;10.23;;;8.10;99.90;;;;;;5009652;28;20046;-81
2021/12/17 06:02:37;;;;;;;17.13;8.18;;;8.10;99.90;;;;;;5011619;28;20045;-81
2021/12/17 06:05:03;;;;;;;20.25;9.13;;;8.10;99.90;;;;;;5010315;28;20053;-82
2021/12/17 06:07:29;;;;;;;18.73;8.90;;;8.10;99.90;;;;;;5012605;28;20041;-82
2021/12/17 06:10:02;;;;;;;20.75;9.65;;;8.10;99.90;;;;;;5009223;28;20489;-81
2021/12/17 06:12:27;;;;;;;17.30;8.68;;;8.10;99.90;;;;;;5008042;28;20050;-81
2021/12/17 06:14:53;;;;;;;22.77;10.20;;;8.10;99.90;;;;;;5011887;28;20053;-81
2021/12/17 06:17:18;;;;;;;26.13;11.52;;;8.10;99.90;;;;;;5010514;28;20076;-82
2021/12/17 06:19:44;;;;;;;22.27;10.95;;;8.10;99.90;;;;;;5005513;28;20038;-82
2021/12/17 06:22:10;;;;;;;22.85;10.27;;;8.10;99.90;;;;;;5002199;28;20042;-81
2021/12/17 06:24:35;;;;;;;22.23;10.43;;;8.10;99.90;;;;;;5011817;28;20042;-81
2021/12/17 06:27:01;;;;;;;33.83;12.13;;;8.10;99.90;;;;;;5010780;28;20081;-80
2021/12/17 06:29:26;;;;;;;29.67;11.32;;;8.10;99.90;;;;;;5010034;28;20072;-81
2021/12/17 06:31:52;;;;;;;23.60;10.55;;;8.10;99.90;;;;;;5008416;28;20107;-81
2021/12/17 06:34:17;;;;;;;20.23;10.70;;;8.10;99.90;;;;;;5010232;28;20050;-79
2021/12/17 06:36:43;;;;;;;24.05;11.85;;;8.10;99.90;;;;;;5011389;28;20034;-82
2021/12/17 06:39:09;;;;;;;24.88;10.85;;;8.10;99.90;;;;;;5009785;28;20045;-81
2021/12/17 06:41:35;;;;;;;17.92;8.25;;;8.00;99.90;;;;;;5009484;28;20117;-82
2021/12/17 06:44:01;;;;;;;23.88;11.18;;;8.10;99.90;;;;;;5010109;28;20052;-81
2021/12/17 06:46:47;;;;;;;22.45;11.23;;;8.00;99.90;;;;;;5010603;28;20030;-82
2021/12/17 06:49:59;;;;;;;27.25;12.25;;;8.10;99.90;;;;;;5025171;28;20049;-82
2021/12/17 06:58:02;;;;;;;26.17;12.82;;;8.00;99.90;;;;;;5011389;28;20037;-79
2021/12/17 07:00:37;;;;;;;30.40;12.40;;;8.00;99.90;;;;;;5010008;28;20052;-76
2021/12/17 07:10:52;;;;;;;;;;;8.00;99.90;;;;;;5024370;28;20050;-77
2021/12/17 07:21:40;;;;;;;21.10;9.40;;;8.00;99.90;;;;;;5003641;28;20112;-77
2021/12/17 07:34:45;;;;;;;26.02;12.75;;;8.00;99.90;;;;;;5008870;28;20049;-79
2021/12/17 07:39:37;;;;;;;26.88;12.50;;;8.00;99.90;;;;;;5009709;28;20095;-78
2021/12/17 07:42:03;;;;;;;29.88;13.60;;;8.00;99.90;;;;;;5008708;28;20535;-78
2021/12/17 07:44:29;;;;;;;23.65;11.45;;;8.00;99.90;;;;;;5010558;28;20103;-77
2021/12/17 07:46:55;;;;;;;23.45;10.93;;;8.00;99.90;;;;;;5009896;28;20109;-78
2021/12/17 07:49:20;;;;;;;26.85;11.52;;;8.10;99.90;;;;;;5024895;28;20524;-78
2021/12/17 07:51:46;;;;;;;33.15;14.48;;;8.00;99.90;;;;;;5010347;28;20173;-77
2021/12/17 07:54:12;;;;;;;25.00;11.18;;;8.10;99.90;;;;;;5009747;28;20045;-78
2021/12/17 07:56:38;;;;;;;36.28;14.55;;;7.90;99.90;;;;;;5010365;28;20048;-78
2021/12/17 07:59:08;;;;;;;24.67;11.75;;;8.10;99.90;;;;;;5025677;28;20037;-78
2021/12/17 08:01:36;;;;;;;14.75;7.45;;;8.10;99.90;;;;;;5001245;28;20038;-78
2021/12/17 08:04:07;;;;;;;28.20;13.27;;;8.10;99.90;;;;;;5007648;28;20390;-79
2021/12/17 08:06:35;;;;;;;32.88;14.98;;;8.10;99.90;;;;;;5010201;28;20056;-78
2021/12/17 08:09:01;;;;;;;32.83;13.57;;;8.10;99.90;;;;;;5009209;28;20037;-78
2021/12/17 08:11:27;;;;;;;33.10;14.20;;;8.10;99.90;;;;;;5008640;28;20561;-78
2021/12/17 08:13:54;;;;;;;26.83;12.35;;;8.10;99.90;;;;;;5009552;28;20141;-78
2021/12/17 08:27:11;;;;;;;29.92;13.07;;;8.10;99.90;;;;;;5009313;28;19921;-78
2021/12/17 08:29:51;;;;;;;28.73;12.48;;;8.10;99.90;;;;;;5008892;28;20137;-78
2021/12/17 08:32:17;;;;;;;28.40;12.68;;;8.20;99.90;;;;;;5008212;28;20041;-77
2021/12/17 08:34:43;;;;;;;32.85;14.02;;;8.20;99.90;;;;;;5024067;28;20061;-77
2021/12/17 08:37:10;;;;;;;32.78;13.20;;;8.20;99.90;;;;;;5009138;28;20034;-78
2021/12/17 08:39:35;;;;;;;15.75;8.10;;;8.20;99.90;;;;;;5008495;28;20050;-80
2021/12/17 08:42:01;;;;;;;18.52;9.32;;;8.20;99.90;;;;;;5007792;28;20409;-78
2021/12/17 08:44:27;;;;;;;24.45;11.77;;;8.30;99.90;;;;;;5008024;28;20404;-76
2021/12/17 08:46:53;;;;;;;26.95;11.82;;;8.20;99.90;;;;;;5009538;28;20052;-77
2021/12/17 08:49:18;;;;;;;32.83;14.40;;;8.20;99.90;;;;;;5008479;28;20042;-81
2021/12/17 08:51:45;;;;;;;35.47;14.55;;;8.20;99.90;;;;;;5007977;28;20157;-79
2021/12/17 08:54:11;;;;;;;29.25;12.88;;;7.50;99.90;;;;;;5008549;28;20049;-77
2021/12/17 08:56:42;;;;;;;30.65;12.88;;;8.30;99.90;;;;;;5009451;28;20050;-78
2021/12/17 08:59:09;;;;;;;27.67;11.88;;;8.30;99.90;;;;;;5009305;28;20050;-79
2021/12/17 09:01:35;;;;;;;29.83;13.32;;;8.40;99.90;;;;;;5009398;28;20037;-78
2021/12/17 09:04:01;;;;;;;21.27;9.60;;;8.20;99.90;;;;;;5007580;28;20100;-79
2021/12/17 09:06:28;;;;;;;27.70;13.68;;;8.30;99.90;;;;;;5011345;28;20061;-79
2021/12/17 09:08:55;;;;;;;26.58;12.73;;;8.30;99.90;;;;;;5013130;28;20721;-79
2021/12/17 09:11:28;;;;;;;35.25;17.83;;;8.30;99.90;;;;;;5012412;28;20058;-79
2021/12/17 09:13:57;;;;;;;23.85;11.75;;;8.30;99.90;;;;;;5009350;28;20401;-79
2021/12/17 09:16:23;;;;;;;20.48;10.23;;;8.40;99.90;;;;;;5012830;28;20409;-79
2021/12/17 09:18:53;;;;;;;29.25;13.45;;;8.40;99.90;;;;;;5012331;28;20041;-79
2021/12/17 09:21:19;;;;;;;23.88;11.85;;;8.40;99.90;;;;;;5007552;28;20034;-79
2021/12/17 09:23:45;;;;;;;27.05;13.95;;;8.40;99.90;;;;;;5010348;28;20041;-79
2021/12/17 09:26:12;;;;;;;31.77;14.18;;;8.40;99.90;;;;;;5012238;28;20048;-79
2021/12/17 09:28:38;;;;;;;23.33;12.82;;;8.50;99.90;;;;;;5012146;28;20125;-79
2021/12/17 09:31:05;;;;;;;18.25;10.00;;;8.50;99.90;;;;;;5012108;28;20458;-79
2021/12/17 09:33:34;;;;;;;19.90;10.45;;;8.50;99.90;;;;;;5012023;28;20045;-80
2021/12/17 09:36:00;;;;;;;19.13;9.65;;;8.50;99.90;;;;;;5011275;28;20080;-79
2021/12/17 09:38:26;;;;;;;18.25;8.88;;;8.50;99.90;;;;;;5013773;28;20493;-79
2021/12/17 09:40:51;;;;;;;23.85;12.88;;;8.50;99.90;;;;;;5012280;28;20042;-79
2021/12/17 09:43:17;;;;;;;24.85;11.68;;;8.50;99.90;;;;;;5010697;28;20046;-79
2021/12/17 09:45:43;;;;;;;21.23;9.45;;;8.50;99.90;;;;;;5012220;28;20053;-79
2021/12/17 09:48:08;;;;;;;22.50;12.02;;;8.50;99.90;;;;;;4995608;28;20046;-79
2021/12/17 09:50:34;;;;;;;26.33;12.35;;;8.50;99.90;;;;;;5011803;28;20042;-79
2021/12/17 09:53:00;;;;;;;25.25;11.68;;;8.50;99.90;;;;;;5011034;28;20042;-79
2021/12/17 09:55:26;;;;;;;28.83;12.07;;;8.60;99.90;;;;;;5011020;28;20136;-78
2021/12/17 09:57:53;;;;;;;23.90;12.05;;;8.60;99.90;;;;;;5003742;28;20548;-78
2021/12/17 10:00:25;;;;;;;24.10;12.18;;;8.60;99.90;;;;;;5012274;28;20528;-79
2021/12/17 10:02:52;;;;;;;26.58;13.38;;;8.60;99.90;;;;;;5027203;28;20049;-79
2021/12/17 10:05:31;;;;;;;30.15;13.65;;;8.60;99.90;;;;;;5011620;28;20374;-80
2021/12/17 10:08:04;;;;;;;24.05;11.48;;;8.60;99.90;;;;;;5011652;28;20053;-79
2021/12/17 10:10:47;;;;;;;20.60;10.52;;;8.60;99.90;;;;;;5010956;28;20092;-78
2021/12/17 10:13:28;;;;;;;21.80;10.90;;;8.70;99.90;;;;;;5028025;28;20104;-79
2021/12/17 10:16:07;;;;;;;24.88;12.02;;;8.60;99.90;;;;;;5010470;28;20060;-79
2021/12/17 10:18:42;;;;;;;27.75;12.55;;;8.70;99.90;;;;;;5010868;28;20069;-79
2021/12/17 10:21:17;;;;;;;25.98;12.90;;;8.90;99.90;;;;;;5011759;28;20042;-79
2021/12/17 10:23:43;;;;;;;18.38;9.80;;;8.70;99.90;;;;;;5011103;28;20050;-79
2021/12/17 10:26:15;;;;;;;24.83;11.23;;;8.70;99.90;;;;;;5011641;28;20054;-79
2021/12/17 10:29:01;;;;;;;22.88;11.20;;;8.80;99.90;;;;;;5010784;28;20521;-79
2021/12/17 10:31:29;;;;;;;29.63;13.25;;;8.80;99.90;;;;;;5010222;28;20068;-77
2021/12/17 10:34:01;;;;;;;31.27;11.88;;;8.80;99.90;;;;;;5012185;28;20050;-77
2021/12/17 10:36:32;;;;;;;27.42;12.20;;;8.80;99.90;;;;;;5012091;28;20512;-78
2021/12/17 10:38:57;;;;;;;26.42;11.02;;;8.80;99.90;;;;;;5011196;28;20416;-79
2021/12/17 10:41:26;;;;;;;27.98;12.20;;;8.90;99.90;;;;;;5010220;28;20037;-79
2021/12/17 10:43:58;;;;;;;22.23;11.43;;;8.90;99.90;;;;;;5009916;28;20049;-79
2021/12/17 10:48:55;;;;;;;21.30;10.80;;;9.00;99.90;;;;;;5010119;28;20050;-79
2021/12/17 10:54:08;;;;;;;13.70;7.97;;;9.00;99.90;;;;;;5010753;28;20045;-79
2021/12/17 10:56:37;;;;;;;22.63;9.85;;;9.00;99.90;;;;;;5011123;28;20034;-79
2021/12/17 10:59:04;;;;;;;22.65;11.68;;;9.10;99.90;;;;;;5010223;28;20103;-79
2021/12/17 11:01:36;;;;;;;19.10;9.73;;;9.00;99.90;;;;;;5010626;28;20057;-79
2021/12/17 11:04:20;;;;;;;18.73;9.45;;;9.00;99.90;;;;;;5026599;28;20046;-79
2021/12/17 11:06:47;;;;;;;24.70;11.95;;;9.00;99.90;;;;;;5016693;28;20128;-79
2021/12/17 11:09:35;;;;;;;19.98;10.25;;;9.00;99.90;;;;;;5010931;28;20046;-79
2021/12/17 11:12:12;;;;;;;22.60;9.88;;;9.00;99.90;;;;;;5011615;28;20050;-79
2021/12/17 11:14:38;;;;;;;26.25;12.07;;;9.10;99.90;;;;;;5011194;28;20386;-74
2021/12/17 11:17:04;;;;;;;19.92;10.95;;;9.10;99.90;;;;;;5011137;28;20108;-76
2021/12/17 11:19:30;;;;;;;19.25;10.07;;;9.10;99.90;;;;;;5010537;28;20125;-76
2021/12/17 11:21:56;;;;;;;26.52;13.32;;;9.20;99.90;;;;;;5004672;28;20052;-76
2021/12/17 11:24:23;;;;;;;22.42;11.68;;;9.20;99.90;;;;;;5011038;28;20193;-76
2021/12/17 11:26:49;;;;;;;24.70;13.02;;;9.20;99.90;;;;;;5008216;28;20156;-76
2021/12/17 11:29:17;;;;;;;22.77;12.85;;;9.20;99.90;;;;;;5009437;28;20060;-75
2021/12/17 11:31:43;;;;;;;19.23;11.45;;;9.20;99.90;;;;;;5026876;28;20037;-77
2021/12/17 11:34:09;;;;;;;26.35;12.57;;;9.20;99.90;;;;;;5009647;28;20053;-77
2021/12/17 11:36:35;;;;;;;19.92;9.90;;;9.20;99.90;;;;;;5009561;28;20507;-77
2021/12/17 11:39:21;;;;;;;21.15;10.20;;;9.20;99.90;;;;;;5009837;28;20047;-77
2021/12/17 11:42:18;;;;;;;21.30;10.77;;;9.30;99.90;;;;;;5009216;28;20058;-77
2021/12/17 11:44:53;;;;;;;16.77;8.13;;;9.20;99.90;;;;;;5010397;28;20384;-77
2021/12/17 11:47:32;;;;;;;16.65;9.00;;;9.20;99.90;;;;;;5010470;28;20050;-77
2021/12/17 11:50:05;;;;;;;15.63;9.02;;;9.20;99.90;;;;;;5007542;28;20045;-77
2021/12/17 11:52:45;;;;;;;14.98;7.72;;;9.20;99.90;;;;;;5009578;28;20046;-77
2021/12/17 11:55:20;;;;;;;15.75;8.70;;;9.20;99.90;;;;;;5009059;28;20045;-77
2021/12/17 11:57:52;;;;;;;20.10;8.80;;;9.20;99.90;;;;;;5009452;28;20400;-83
2021/12/17 12:00:24;;;;;;;16.75;8.18;;;9.20;99.90;;;;;;5010302;28;20133;-80
2021/12/17 12:02:51;;;;;;;13.73;6.88;;;9.30;99.90;;;;;;5009456;28;20050;-78
2021/12/17 12:05:44;;;;;;;13.85;7.22;;;9.30;99.90;;;;;;5010505;28;20397;-78
2021/12/17 12:08:45;;;;;;;13.27;6.70;;;9.30;99.90;;;;;;5007897;28;20058;-77
2021/12/17 12:11:12;;;;;;;13.55;7.05;;;9.40;99.90;;;;;;4998211;28;20567;-78
2021/12/17 12:13:44;;;;;;;14.38;7.43;;;9.40;99.90;;;;;;5010635;28;20058;-78
2021/12/17 12:16:15;;;;;;;13.68;6.78;;;9.40;99.90;;;;;;5009405;28;20085;-78
2021/12/17 12:18:50;;;;;;;10.15;5.95;;;9.40;99.90;;;;;;5010052;28;20048;-78
2021/12/17 12:21:33;;;;;;;11.73;5.97;;;9.30;99.90;;;;;;5004473;28;20081;-78
2021/12/17 12:24:10;;;;;;;11.20;5.07;;;9.40;99.90;;;;;;5008557;28;20125;-78
2021/12/17 12:26:40;;;;;;;11.77;6.70;;;9.40;99.90;;;;;;4992890;28;20387;-78
2021/12/17 12:29:10;;;;;;;12.55;5.40;;;9.30;99.90;;;;;;5008852;28;20143;-78
2021/12/17 12:31:39;;;;;;;8.73;4.43;;;9.40;99.90;;;;;;5007405;28;20068;-78
2021/12/17 12:34:06;;;;;;;6.75;4.10;;;9.40;99.90;;;;;;5008214;28;20077;-77
2021/12/17 12:36:52;;;;;;;7.47;4.22;;;9.40;99.90;;;;;;5009332;28;20034;-78
2021/12/17 12:39:20;;;;;;;14.88;9.82;;;9.40;99.90;;;;;;5008941;28;20497;-77
2021/12/17 12:42:02;;;;;;;9.10;5.43;;;9.40;99.90;;;;;;5007719;28;20050;-79
2021/12/17 12:44:46;;;;;;;8.80;5.10;;;9.40;99.90;;;;;;5008341;28;20389;-79
2021/12/17 12:47:25;;;;;;;5.30;2.45;;;9.40;99.90;;;;;;5007807;28;20160;-79
2021/12/17 12:49:51;;;;;;;6.90;4.20;;;9.40;99.90;;;;;;5009604;28;20054;-75
2021/12/17 12:52:22;;;;;;;6.22;3.10;;;9.40;99.90;;;;;;5008535;28;20405;-76
2021/12/17 12:54:53;;;;;;;11.90;6.90;;;9.40;99.90;;;;;;5007043;28;20137;-75
2021/12/17 12:57:32;;;;;;;9.82;4.53;;;9.40;99.90;;;;;;5008647;28;20129;-74
2021/12/17 13:00:00;;;;;;;5.32;2.53;;;9.40;99.90;;;;;;5007561;28;20041;-74
2021/12/17 13:02:27;;;;;;;3.85;1.77;;;9.50;99.90;;;;;;5008739;28;20073;-75
2021/12/17 13:04:59;;;;;;;5.43;2.40;;;9.50;99.90;;;;;;5005057;28;20405;-75
2021/12/17 13:07:37;;;;;;;8.25;2.22;;;9.50;99.90;;;;;;5007190;28;20046;-74
2021/12/17 13:10:18;;;;;;;6.68;3.63;;;9.50;99.90;;;;;;5007174;28;20084;-75
2021/12/17 13:13:04;;;;;;;5.82;2.22;;;9.50;99.90;;;;;;5005140;28;20045;-74
2021/12/17 13:23:39;;;;;;;12.38;3.80;;;9.70;99.90;;;;;;5002519;28;20933;-74
2021/12/17 13:26:10;;;;;;;46.15;29.77;;;9.40;99.90;;;;;;5006027;28;20069;-74
2021/12/17 13:28:49;;;;;;;16.08;10.00;;;9.40;99.90;;;;;;5007715;28;20050;-77
2021/12/17 13:31:32;;;;;;;10.25;7.13;;;9.40;99.90;;;;;;5005546;28;20041;-75
2021/12/17 13:33:58;;;;;;;6.57;3.70;;;9.40;99.90;;;;;;5005847;28;20054;-75
2021/12/17 13:36:23;;;;;;;7.80;3.97;;;9.40;99.90;;;;;;5006853;28;20068;-74
2021/12/17 13:38:58;;;;;;;8.55;4.13;;;9.40;99.90;;;;;;5006629;28;20045;-74
2021/12/17 13:41:40;;;;;;;7.43;4.05;;;9.40;99.90;;;;;;5007461;28;20049;-74
2021/12/17 13:44:34;;;;;;;10.30;7.30;;;9.40;99.90;;;;;;5023400;28;20057;-75
2021/12/17 13:47:11;;;;;;;9.50;4.57;;;9.40;99.90;;;;;;5008965;28;20103;-74
2021/12/17 13:49:39;;;;;;;8.40;4.57;;;9.40;99.90;;;;;;5006254;28;20169;-75
2021/12/17 13:52:05;;;;;;;12.45;8.82;;;9.40;99.90;;;;;;5006622;28;20050;-74
2021/12/17 13:54:31;;;;;;;10.70;7.60;;;9.40;99.90;;;;;;5009830;28;20060;-74
2021/12/17 13:57:02;;;;;;;13.60;9.77;;;9.40;99.90;;;;;;5011467;28;20061;-74
2021/12/17 13:59:35;;;;;;;10.75;6.07;;;9.40;99.90;;;;;;5009278;28;20481;-75
2021/12/17 14:02:32;;;;;;;9.85;6.15;;;9.40;99.90;;;;;;5009381;28;20053;-74
2021/12/17 14:05:07;;;;;;;9.35;4.70;;;9.40;99.90;;;;;;5008992;28;20474;-75
2021/12/17 14:07:35;;;;;;;8.93;4.45;;;9.40;99.90;;;;;;5010092;28;20062;-74
2021/12/17 14:10:06;;;;;;;8.02;4.78;;;9.40;99.90;;;;;;5010998;28;20765;-75
2021/12/17 14:12:36;;;;;;;9.18;5.60;;;9.40;99.90;;;;;;5011267;28;20168;-75
2021/12/17 14:15:12;;;;;;;9.35;5.50;;;9.30;99.90;;;;;;5010861;28;20124;-74
2021/12/17 14:17:42;;;;;;;9.05;5.25;;;9.30;99.90;;;;;;5010711;28;20038;-74
2021/12/17 14:20:15;;;;;;;8.55;5.80;;;9.30;99.90;;;;;;5010683;28;20049;-74
2021/12/17 14:22:47;;;;;;;6.68;4.03;;;9.30;99.90;;;;;;5001828;28;20053;-74
2021/12/17 14:25:28;;;;;;;7.78;4.38;;;9.30;99.90;;;;;;5011780;28;20107;-75
2021/12/17 14:27:55;;;;;;;8.85;5.65;;;9.30;99.90;;;;;;5027162;28;20062;-74
2021/12/17 14:30:32;;;;;;;9.00;4.80;;;9.30;99.90;;;;;;5010795;28;20045;-77
2021/12/17 14:32:58;;;;;;;8.90;5.22;;;9.30;99.90;;;;;;5011835;28;20052;-75
2021/12/17 14:36:02;;;;;;;9.13;5.30;;;9.30;99.90;;;;;;5028054;28;20049;-75
2021/12/17 14:38:46;;;;;;;10.13;6.40;;;9.30;99.90;;;;;;4967318;28;20050;-75
2021/12/17 14:41:24;;;;;;;9.88;5.72;;;9.40;99.90;;;;;;4940343;28;20051;-75
2021/12/17 14:44:01;;;;;;;9.23;5.00;;;9.30;99.90;;;;;;4988289;28;20053;-75
2021/12/17 14:46:48;;;;;;;8.35;5.00;;;9.30;99.90;;;;;;5009971;28;20048;-75
2021/12/17 14:57:13;;;;;;;9.85;6.30;;;9.30;99.90;;;;;;5010835;28;20397;-76
2021/12/17 15:03:21;;;;;;;9.93;6.18;;;9.30;99.90;;;;;;5008795;28;20064;-75
2021/12/17 15:05:47;;;;;;;10.63;5.70;;;9.30;99.90;;;;;;5009319;28;20054;-76
2021/12/17 15:08:13;;;;;;;11.85;7.90;;;9.30;99.90;;;;;;5010893;28;20499;-75
2021/12/17 15:10:39;;;;;;;10.45;6.93;;;9.30;99.90;;;;;;5010608;28;20050;-75
2021/12/17 15:13:06;;;;;;;10.95;7.40;;;9.30;99.90;;;;;;5009362;28;20060;-72
2021/12/17 15:15:38;;;;;;;12.13;7.60;;;9.30;99.90;;;;;;5009324;28;20485;-77
2021/12/17 15:18:19;;;;;;;14.00;7.35;;;9.30;99.90;;;;;;5010194;28;20072;-76
2021/12/17 15:20:47;;;;;;;8.25;5.07;;;9.30;99.90;;;;;;5009011;28;20048;-76
2021/12/17 15:23:14;;;;;;;10.02;6.15;;;9.30;99.90;;;;;;5006279;28;20052;-76
2021/12/17 15:25:40;;;;;;;10.48;5.97;;;9.30;99.90;;;;;;5025087;28;20045;-75
2021/12/17 15:28:08;;;;;;;9.57;6.18;;;9.30;99.90;;;;;;5009259;28;20132;-75
2021/12/17 15:30:37;;;;;;;10.88;6.53;;;9.30;99.90;;;;;;5009131;28;20046;-75
2021/12/17 15:33:04;;;;;;;10.85;6.55;;;9.30;99.90;;;;;;5009926;28;20102;-78
2021/12/17 15:35:30;;;;;;;11.63;6.05;;;9.30;99.90;;;;;;5009325;28;20096;-75
2021/12/17 15:37:58;;;;;;;10.77;6.35;;;9.30;99.90;;;;;;5008183;28;20042;-76
2021/12/17 15:40:24;;;;;;;13.98;6.30;;;9.80;99.90;;;;;;5009480;28;20057;-76
2021/12/17 15:42:51;;;;;;;13.68;7.80;;;9.20;99.90;;;;;;5009716;28;20149;-76
2021/12/17 15:45:18;;;;;;;10.25;6.90;;;9.30;99.90;;;;;;5010508;28;20046;-76
2021/12/17 15:47:44;;;;;;;12.48;6.22;;;9.20;99.90;;;;;;5008372;28;20048;-76
2021/12/17 15:50:14;;;;;;;10.75;6.90;;;9.20;99.90;;;;;;5026468;28;20046;-75
2021/12/17 15:52:45;;;;;;;11.15;6.40;;;9.20;99.90;;;;;;5009691;28;20038;-74
2021/12/17 15:55:18;;;;;;;10.32;6.03;;;9.20;99.90;;;;;;5008952;28;20050;-75
2021/12/17 15:57:44;;;;;;;13.27;7.82;;;9.20;99.90;;;;;;5025306;28;20056;-74
2021/12/17 16:00:11;;;;;;;13.88;7.85;;;9.20;99.90;;;;;;5009349;28;20046;-75
2021/12/17 16:02:40;;;;;;;13.43;7.63;;;9.20;99.90;;;;;;5009087;28;20041;-79
2021/12/17 16:05:08;;;;;;;13.48;8.07;;;9.20;99.90;;;;;;5008906;28;20053;-75
2021/12/17 16:07:36;;;;;;;14.55;7.88;;;9.20;99.90;;;;;;5005974;28;20531;-75